ADDS METAR Data INFO
IDs: Format: Raw Decoded Include TAF

Data at: 2052 UTC 26 May 2017

KPIL 261953Z AUTO 15020G25KT 6SM HZ BKN027 BKN035 33/25 A2981 RMK AO2 PK WND 17028/1857 SLP093 T03330250
KPIL 261935Z AUTO 16019G26KT 6SM HZ BKN027 BKN035 33/26 A2981 RMK AO2 PK WND 17028/1857 T03330256
KPIL 261853Z AUTO 17019G27KT 6SM HZ SCT028 BKN033 33/25 A2982 RMK AO2 PK WND 14028/1832 SLP096 T03330250
KPIL 261807Z AUTO 16021G26KT 6SM HZ SCT024 OVC032 32/25 A2983 RMK AO2 PK WND 17026/1801 T03170250
KPIL 261753Z AUTO 16018G24KT 6SM HZ BKN024 OVC033 32/25 A2983 RMK AO2 PK WND 17029/1706 SLP101 T03170250 10317 20272 51005
KPIL 261653Z AUTO 18023G30KT 6SM HZ BKN027 BKN032 32/24 A2983 RMK AO2 PK WND 16032/1639 SLP100 T03170244
KPIL 261553Z AUTO 16023G28KT 6SM HZ BKN023 OVC030 31/24 A2982 RMK AO2 PK WND 16031/1532 SLP097 T03060244
KPIL 261453Z AUTO 17017G28KT 7SM OVC023 31/24 A2982 RMK AO2 PK WND 15031/1429 SLP096 T03060244 51012 $
KPIL 261434Z AUTO 16021G31KT 7SM BKN023 BKN027 29/24 A2982 RMK AO2 PK WND 15031/1429 T02940244 $
KPIL 261423Z AUTO 16020G28KT 7SM SCT019 30/24 A2982 RMK AO2 PK WND 16028/1416 T03000244 $
KPIL 261353Z AUTO 16019G28KT 7SM BKN020 29/24 A2981 RMK AO2 PK WND 17028/1331 SLP095 T02890244
KPIL 261253Z AUTO 16018G23KT 6SM HZ SCT020 OVC026 28/24 A2980 RMK AO2 PK WND 17026/1221 SLP091 T02780244
KPIL 261153Z AUTO 16018G26KT 7SM OVC026 27/24 A2978 RMK AO2 PK WND 15026/1149 SLP085 T02720244 10272 20261 51008
KPIL 261130Z AUTO 15014KT 8SM BKN026 27/24 A2978 RMK AO2 T02670239
KPIL 261053Z AUTO 16013G20KT 8SM CLR 27/24 A2978 RMK AO2 SLP084 T02670239
KPIL 260953Z AUTO 16013KT 9SM CLR 27/24 A2978 RMK AO2 PK WND 17026/0904 SLP084 T02670239
KPIL 260853Z AUTO 16019G26KT 9SM CLR 27/24 A2976 RMK AO2 PK WND 16026/0851 SLP076 T02670239 58017
KPIL 260801Z AUTO 16017G23KT 9SM FEW024 27/24 A2977 RMK AO2 T02670239
KPIL 260753Z AUTO 16017G24KT 9SM BKN024 27/24 A2977 RMK AO2 SLP081 T02670239
KPIL 260653Z AUTO 17013G19KT 9SM OVC020 27/24 A2981 RMK AO2 SLP093 T02670239
KPIL 260553Z AUTO 16016G21KT 9SM OVC020 27/24 A2981 RMK AO2 SLP093 T02670239 10289 20267 403220211 51014
KPIL 260503Z AUTO 16015G18KT 9SM BKN016 27/24 A2981 RMK AO2 T02670239
KPIL 260453Z AUTO 16011KT 9SM SCT016 27/24 A2981 RMK AO2 SLP093 T02670239
KPIL 260353Z AUTO 16013KT 9SM CLR 27/24 A2980 RMK AO2 SLP089 T02670239
KPIL 260253Z AUTO 16013KT 10SM CLR 27/23 A2977 RMK AO2 SLP080 T02670233 53017
KPIL 260153Z AUTO 16016KT 10SM FEW020 27/23 A2975 RMK AO2 PK WND 16027/0109 SLP074 T02720233
KPIL 260118Z AUTO 16020G27KT 9SM SCT020 27/23 A2974 RMK AO2 PK WND 16027/0109 T02720233
KPIL 260053Z AUTO 15021G26KT 9SM BKN022 28/23 A2973 RMK AO2 PK WND 15026/0053 SLP068 T02780233
KPIL 260003Z AUTO 15020G26KT 9SM SCT021 BKN026 29/23 A2972 RMK AO2 PK WND 15026/0002 T02890233
KPIL 252353Z AUTO 15017G24KT 9SM SCT021 29/23 A2972 RMK AO2 PK WND 14027/2254 SLP063 T02890233 10322 20289 55003
KPIL 252348Z AUTO 15016G24KT 9SM SCT023 29/24 A2972 RMK AO2 PK WND 14027/2254
KPIL 252253Z AUTO 14021G27KT 9SM BKN025 30/23 A2971 RMK AO2 PK WND 15029/2158 SLP061 T03000233
KPIL 252153Z AUTO 15020G28KT 9SM BKN029 31/23 A2973 RMK AO2 PK WND 15028/2148 SLP066 T03060233
KPIL 252149Z AUTO 15020G28KT 9SM BKN029 31/23 A2973 RMK AO2 PK WND 15028/2148
KPIL 252053Z AUTO 15019G27KT 10SM BKN033 32/23 A2974 RMK AO2 PK WND 14027/2051 SLP071 T03170233 58018
KPIL 251953Z AUTO 14018G23KT 9SM FEW027 OVC037 32/23 A2977 RMK AO2 PK WND 14027/1902 SLP079 T03170233
KPIL 251853Z AUTO 15017G26KT 10SM SCT029 OVC037 31/23 A2979 RMK AO2 PK WND 14026/1845 SLP086 T03110228
KPIL 251753Z AUTO 16016G26KT 10SM BKN033 31/22 A2980 RMK AO2 PK WND 14028/1727 SLP089 T03110217 10317 20217 58005
KPIL 251653Z AUTO 14019G24KT 10SM SCT033 31/22 A2981 RMK AO2 PK WND 16028/1633 SLP092 T03060217
KPIL 251553Z AUTO 17015G24KT 10SM FEW032 30/21 A2982 RMK AO2 SLP096 T03000206
KPIL 251453Z AUTO 16016G22KT 10SM CLR 29/20 A2981 RMK AO2 SLP094 T02940200 51006
KPIL 251353Z AUTO 15016G20KT 10SM CLR 27/20 A2981 RMK AO2 SLP094 T02720200
KPIL 251253Z AUTO 15008KT 10SM FEW048 24/19 A2981 RMK AO2 SLP093 T02440194
KPIL 251153Z AUTO 16005KT 10SM CLR 22/18 A2979 RMK AO2 SLP088 T02170183 10222 20211 53001
KPIL 251053Z AUTO 16005KT 10SM CLR 22/18 A2978 RMK AO2 SLP085 T02170183
KPIL 250953Z AUTO 17006KT 10SM CLR 22/18 A2979 RMK AO2 SLP086 T02170178
KPIL 250853Z AUTO 16007KT 10SM CLR 22/18 A2979 RMK AO2 SLP087 T02220178 58004


Page loaded:  20:52 UTC  |   01:52 PM Pacific  |   02:52 PM Mountain  |   03:52 PM Central  |   04:52 PM Eastern

 

ADVISORIES

FORECASTS

FORECASTS

OBSERVATIONS

USER TOOLS

ABOUT US